Главная страница
METAR-TAF:

METAR-TAF

Аэропорты :

Душанбе, Таджикистан

широта: 38-33N, долгота: 068-47E, высота над уровнем моря: 803 м

Текущие метеонаблюдения

Эта сводка был подготовлена 36 минут назад, в 10:00 UTC
Ветер 6 Узел от южный, изменяющийся между восточно-юго-восточный и западный
Температура 41°C
Влажность 12%
Давление 1000 hPa
Видимость 10 км и более
небольшая облачность на высоте 6600 фута

METAR: UTDD 161000Z 17003MPS 120V270 9999 FEW066 41/06 Q1000 R09/D NOSIG RMK QFE682/0910

Время: 15:36 (10:36 UTC)

Прогноз

Эта сводка был подготовлена 1 час и 36 минут назад, в 09:00 UTC
Прогноз действительный с 16-го 10 UTC до 16-го 22 UTC
Ветер 4 Узел переменных направлений
Видимость: 6000 м
небольшая облачность на высоте 6600 фута
Отдельные облака на высоте 15000 фута
временами
С 16-го 10 UTC до 16-го 16 UTC
Ветер 10 Узел от западный

TAF: UTDD 160900Z 1610/1622 VRB02MPS 6000 FEW066 SCT150 TEMPO 1610/1616 26005MPS

Метеонаблюдения и прогнозы для более 4000 аэропортов (сводки METAR и TAF).

Имеющиеся станции представлены на карте желтыми и красными точками.

Чтобы увидеть название станции, наведите на нее мышь.

Затем щелкните, чтобы увидеть метеонаблюдения и метеопрогнозы.

Управление картой: чтобы увеличить масштаб, щелкните зеленые кнопки с черным крестиком; чтобы уменьшить масштаб, щелкните зеленую кнопку с тире; для просмотра соседних карт щелкайте зеленые стрелки.


METAR-TAF: